TimeCST,TemperatureF,Dew PointF,Humidity,Sea Level PressureIn,VisibilityMPH,Wind Direction,Wind SpeedMPH,Gust SpeedMPH,PrecipitationIn,Events,Conditions,WindDirDegrees,DateUTC
12:53 AM,45.0,30.0,56,30.27,10.0,NNW,8.1,-,N/A,,Clear,330,2013-02-16 06:53:00
1:53 AM,43.0,32.0,65,30.27,10.0,NW,5.8,-,N/A,,Partly Cloudy,320,2013-02-16 07:53:00
2:53 AM,41.0,32.0,70,30.26,10.0,NNW,5.8,-,N/A,,Partly Cloudy,330,2013-02-16 08:53:00
3:53 AM,39.9,30.0,68,30.27,10.0,NNW,10.4,-,N/A,,Clear,330,2013-02-16 09:53:00
4:53 AM,39.0,27.0,62,30.29,10.0,NNW,8.1,-,N/A,,Clear,330,2013-02-16 10:53:00
5:53 AM,37.0,27.0,67,30.30,10.0,NNW,6.9,-,N/A,,Clear,330,2013-02-16 11:53:00
6:53 AM,36.0,25.0,64,30.32,10.0,NW,9.2,-,N/A,,Clear,320,2013-02-16 12:53:00
7:53 AM,37.9,25.0,60,30.34,10.0,NW,9.2,-,N/A,,Scattered Clouds,320,2013-02-16 13:53:00
8:53 AM,39.9,24.1,53,30.36,10.0,NW,9.2,-,N/A,,Clear,320,2013-02-16 14:53:00
9:53 AM,43.0,23.0,45,30.36,10.0,WNW,6.9,-,N/A,,Clear,300,2013-02-16 15:53:00
10:53 AM,44.1,21.0,40,30.36,10.0,NNW,8.1,-,N/A,,Clear,330,2013-02-16 16:53:00
11:53 AM,46.0,19.9,35,30.35,10.0,NNW,8.1,16.1,N/A,,Clear,330,2013-02-16 17:53:00
12:53 PM,48.0,21.9,36,30.32,10.0,NW,13.8,19.6,N/A,,Partly Cloudy,310,2013-02-16 18:53:00
1:53 PM,46.0,21.0,37,30.28,10.0,NW,12.7,21.9,N/A,,Partly Cloudy,310,2013-02-16 19:53:00
2:53 PM,50.0,19.0,29,30.26,10.0,WNW,11.5,25.3,N/A,,Scattered Clouds,300,2013-02-16 20:53:00
3:53 PM,51.1,19.0,28,30.26,10.0,NW,13.8,20.7,N/A,,Clear,310,2013-02-16 21:53:00
4:53 PM,48.9,14.0,25,30.27,10.0,NNW,11.5,20.7,N/A,,Clear,340,2013-02-16 22:53:00
5:53 PM,46.0,19.0,34,30.28,10.0,NNW,8.1,-,N/A,,Clear,330,2013-02-16 23:53:00
6:53 PM,41.0,26.1,55,30.30,10.0,North,8.1,-,N/A,,Clear,10,2013-02-17 00:53:00
7:53 PM,39.9,25.0,55,30.31,10.0,NNE,8.1,-,N/A,,Clear,20,2013-02-17 01:53:00
8:53 PM,39.0,24.1,55,30.32,10.0,NE,5.8,-,N/A,,Clear,50,2013-02-17 02:53:00
9:53 PM,37.0,25.0,62,30.33,10.0,East,6.9,-,N/A,,Clear,80,2013-02-17 03:53:00
10:53 PM,35.1,26.1,70,30.32,10.0,East,4.6,-,N/A,,Clear,100,2013-02-17 04:53:00
11:53 PM,32.0,25.0,75,30.34,10.0,SE,4.6,-,N/A,,Clear,140,2013-02-17 05:53:00